Time;durP1;ratioP1;P1;durP2;ratioP2;P2;SDS_P1;SDS_P2;PMS_P1;PMS_P2;Temp;Humidity;BMP_temperature;BMP_pressure;BME280_temperature;BME280_humidity;BME280_pressure;Samples;Min_cycle;Max_cycle;Signal;HPM_P1;HPM_P2
2023/05/26 00:01:01;;;;;;;0.10;0.10;;;;;;;;;;6166019;23;20673;-77
2023/05/26 00:03:48;;;;;;;0.10;0.10;;;;;;;;;;6169873;23;20013;-77
2023/05/26 00:06:34;;;;;;;0.10;0.10;;;;;;;;;;6168042;23;20013;-77
2023/05/26 00:09:20;;;;;;;0.10;0.10;;;;;;;;;;6167999;23;20021;-77
2023/05/26 00:12:06;;;;;;;0.05;0.05;;;;;;;;;;6167144;23;20013;-77
2023/05/26 00:14:52;;;;;;;0.10;0.10;;;;;;;;;;6167326;23;20025;-77
2023/05/26 00:17:38;;;;;;;0.10;0.10;;;;;;;;;;6169952;23;20124;-77
2023/05/26 00:20:25;;;;;;;0.10;0.10;;;;;;;;;;6169813;23;20013;-77
2023/05/26 00:23:10;;;;;;;0.10;0.10;;;;;;;;;;6167726;23;20031;-76
2023/05/26 00:25:56;;;;;;;0.10;0.10;;;;;;;;;;6146096;23;20124;-77
2023/05/26 00:28:42;;;;;;;0.10;0.10;;;;;;;;;;6168810;23;20017;-77
2023/05/26 00:31:28;;;;;;;0.10;0.10;;;;;;;;;;6166882;23;20119;-76
2023/05/26 00:34:14;;;;;;;0.10;0.10;;;;;;;;;;6168789;23;20536;-77
2023/05/26 00:37:00;;;;;;;0.10;0.10;;;;;;;;;;6145102;23;20024;-77
2023/05/26 00:39:46;;;;;;;0.10;0.10;;;;;;;;;;6146146;23;20095;-76
2023/05/26 00:42:32;;;;;;;0.05;0.05;;;;;;;;;;6146957;23;20025;-77
2023/05/26 00:45:17;;;;;;;0.10;0.10;;;;;;;;;;6169533;23;20013;-76
2023/05/26 00:48:04;;;;;;;0.10;0.10;;;;;;;;;;6166181;23;20622;-77
2023/05/26 00:50:50;;;;;;;0.10;0.10;;;;;;;;;;6147632;23;20075;-78
2023/05/26 00:53:39;;;;;;;0.10;0.10;;;;;;;;;;6168398;23;20091;-77
2023/05/26 00:56:27;;;;;;;0.10;0.10;;;;;;;;;;6167500;23;20017;-78
2023/05/26 00:59:13;;;;;;;0.10;0.10;;;;;;;;;;6168427;23;20048;-77
2023/05/26 01:02:00;;;;;;;0.10;0.10;;;;;;;;;;6143678;23;20028;-77
2023/05/26 01:04:48;;;;;;;0.10;0.10;;;;;;;;;;6167319;23;20108;-77
2023/05/26 01:07:34;;;;;;;0.10;0.10;;;;;;;;;;6169000;23;20196;-77
2023/05/26 01:10:20;;;;;;;0.10;0.10;;;;;;;;;;6167754;23;20454;-77
2023/05/26 01:13:11;;;;;;;0.10;0.10;;;;;;;;;;6166316;23;20534;-77
2023/05/26 01:15:58;;;;;;;0.10;0.10;;;;;;;;;;6166992;23;20059;-76
2023/05/26 01:18:47;;;;;;;0.10;0.10;;;;;;;;;;6108517;23;20037;-78
2023/05/26 01:21:34;;;;;;;0.10;0.10;;;;;;;;;;6109071;23;20324;-77
2023/05/26 01:24:30;;;;;;;0.10;0.10;;;;;;;;;;6109455;23;20025;-78
2023/05/26 01:27:30;;;;;;;0.10;0.10;;;;;;;;;;6108216;23;20081;-77
2023/05/26 01:30:17;;;;;;;0.10;0.10;;;;;;;;;;6106917;23;20053;-77
2023/05/26 01:33:03;;;;;;;0.10;0.10;;;;;;;;;;6108294;23;20101;-77
2023/05/26 01:35:49;;;;;;;0.10;0.10;;;;;;;;;;6107543;23;20021;-78
2023/05/26 01:38:35;;;;;;;0.10;0.10;;;;;;;;;;6107775;23;20115;-77
2023/05/26 01:41:44;;;;;;;0.10;0.10;;;;;;;;;;6108332;23;20415;-77
2023/05/26 01:44:32;;;;;;;0.10;0.10;;;;;;;;;;6107848;23;20021;-77
2023/05/26 01:47:18;;;;;;;0.10;0.10;;;;;;;;;;6108250;23;20014;-77
2023/05/26 01:50:05;;;;;;;0.10;0.10;;;;;;;;;;6106629;23;20158;-77
2023/05/26 01:52:56;;;;;;;0.10;0.10;;;;;;;;;;6108237;23;20041;-77
2023/05/26 01:55:41;;;;;;;0.10;0.10;;;;;;;;;;6109887;23;20021;-76
2023/05/26 01:58:28;;;;;;;0.10;0.10;;;;;;;;;;6108155;23;20017;-77
2023/05/26 02:01:14;;;;;;;0.10;0.10;;;;;;;;;;6108797;23;20117;-76
2023/05/26 02:04:00;;;;;;;0.10;0.10;;;;;;;;;;6107404;23;20097;-77
2023/05/26 02:06:46;;;;;;;0.10;0.10;;;;;;;;;;6109528;23;20045;-77
2023/05/26 02:09:35;;;;;;;0.10;0.10;;;;;;;;;;6108222;23;20028;-77
2023/05/26 02:12:21;;;;;;;0.10;0.10;;;;;;;;;;6108570;23;20653;-77
2023/05/26 02:15:07;;;;;;;0.10;0.10;;;;;;;;;;6107083;23;20018;-77
2023/05/26 02:17:57;;;;;;;0.10;0.10;;;;;;;;;;6148518;23;20079;-77
2023/05/26 02:20:43;;;;;;;0.10;0.10;;;;;;;;;;6168937;23;20013;-77
2023/05/26 02:23:29;;;;;;;0.10;0.10;;;;;;;;;;6148607;23;20024;-76
2023/05/26 02:26:18;;;;;;;0.10;0.10;;;;;;;;;;6166424;23;20012;-76
2023/05/26 02:29:05;;;;;;;0.10;0.10;;;;;;;;;;6166768;23;20049;-76
2023/05/26 02:31:51;;;;;;;0.10;0.10;;;;;;;;;;6166024;23;20021;-77
2023/05/26 02:34:37;;;;;;;0.10;0.10;;;;;;;;;;6168103;23;20056;-77
2023/05/26 02:37:23;;;;;;;0.00;0.00;;;;;;;;;;6167445;23;20028;-76
2023/05/26 02:40:09;;;;;;;0.10;0.10;;;;;;;;;;6166463;23;20017;-76
2023/05/26 02:42:55;;;;;;;0.10;0.10;;;;;;;;;;6167023;23;20009;-77
2023/05/26 02:45:41;;;;;;;0.10;0.10;;;;;;;;;;6147738;23;20021;-77
2023/05/26 02:48:27;;;;;;;0.10;0.10;;;;;;;;;;6147977;23;20024;-77
2023/05/26 02:51:12;;;;;;;0.10;0.10;;;;;;;;;;6146375;23;20028;-77
2023/05/26 02:53:58;;;;;;;0.10;0.10;;;;;;;;;;6170472;23;20112;-77
2023/05/26 02:56:44;;;;;;;0.10;0.10;;;;;;;;;;6149237;23;20017;-77
2023/05/26 02:59:29;;;;;;;0.10;0.10;;;;;;;;;;6147679;23;20020;-76
2023/05/26 03:02:16;;;;;;;0.10;0.10;;;;;;;;;;6148341;23;20044;-76
2023/05/26 03:05:01;;;;;;;0.10;0.10;;;;;;;;;;6169980;23;20814;-77
2023/05/26 03:07:47;;;;;;;0.10;0.10;;;;;;;;;;6149115;23;20075;-77
2023/05/26 03:10:33;;;;;;;0.10;0.10;;;;;;;;;;6168999;23;20049;-77
2023/05/26 03:13:19;;;;;;;0.10;0.10;;;;;;;;;;6146844;23;20095;-77
2023/05/26 03:16:06;;;;;;;0.10;0.10;;;;;;;;;;6148147;23;20128;-76
2023/05/26 03:18:52;;;;;;;0.10;0.10;;;;;;;;;;6148329;23;20029;-77
2023/05/26 03:21:38;;;;;;;0.10;0.10;;;;;;;;;;6149259;23;20083;-76
2023/05/26 03:24:25;;;;;;;0.10;0.10;;;;;;;;;;6149651;23;20055;-78
2023/05/26 03:27:10;;;;;;;0.10;0.10;;;;;;;;;;6147332;23;20493;-77
2023/05/26 03:29:56;;;;;;;0.10;0.10;;;;;;;;;;6124392;23;20127;-76
2023/05/26 03:32:42;;;;;;;0.10;0.10;;;;;;;;;;6147874;23;20017;-77
2023/05/26 03:35:27;;;;;;;0.10;0.10;;;;;;;;;;6148993;23;20024;-75
2023/05/26 03:38:14;;;;;;;0.10;0.10;;;;;;;;;;6168192;23;20016;-75
2023/05/26 03:41:01;;;;;;;0.10;0.10;;;;;;;;;;6148466;23;20052;-77
2023/05/26 03:43:48;;;;;;;0.10;0.10;;;;;;;;;;6146623;23;20107;-77
2023/05/26 03:46:34;;;;;;;0.10;0.10;;;;;;;;;;6148483;23;20032;-78
2023/05/26 03:49:20;;;;;;;0.10;0.10;;;;;;;;;;6149011;23;20108;-75
2023/05/26 03:52:06;;;;;;;0.00;0.00;;;;;;;;;;6147921;23;20017;-76
2023/05/26 03:54:51;;;;;;;0.10;0.10;;;;;;;;;;6146463;23;20021;-79
2023/05/26 03:57:38;;;;;;;0.10;0.10;;;;;;;;;;6149542;23;20086;-76
2023/05/26 04:00:27;;;;;;;0.10;0.10;;;;;;;;;;6169830;23;20024;-76
2023/05/26 04:03:15;;;;;;;0.10;0.10;;;;;;;;;;6169520;23;20074;-75
2023/05/26 04:06:01;;;;;;;0.10;0.10;;;;;;;;;;6169344;23;20199;-76
2023/05/26 04:08:47;;;;;;;0.10;0.10;;;;;;;;;;6150646;23;20330;-75
2023/05/26 04:11:33;;;;;;;0.10;0.10;;;;;;;;;;6170840;23;20045;-74
2023/05/26 04:14:19;;;;;;;0.10;0.10;;;;;;;;;;6150920;23;20096;-76
2023/05/26 04:17:06;;;;;;;0.10;0.10;;;;;;;;;;6169549;23;20021;-75
2023/05/26 04:19:52;;;;;;;0.10;0.10;;;;;;;;;;6169416;23;20047;-78
2023/05/26 04:22:38;;;;;;;0.10;0.10;;;;;;;;;;6150952;23;20257;-75
2023/05/26 04:25:24;;;;;;;0.10;0.10;;;;;;;;;;6150265;23;20894;-76
2023/05/26 04:28:33;;;;;;;0.10;0.10;;;;;;;;;;6169758;23;20067;-77
2023/05/26 04:31:41;;;;;;;0.10;0.10;;;;;;;;;;6169362;23;20021;-77
2023/05/26 04:34:46;;;;;;;0.10;0.10;;;;;;;;;;6150464;23;20013;-76
2023/05/26 04:37:38;;;;;;;0.10;0.10;;;;;;;;;;6171332;23;20467;-76
2023/05/26 04:40:24;;;;;;;0.10;0.10;;;;;;;;;;6150466;23;20019;-75
2023/05/26 04:43:10;;;;;;;0.10;0.10;;;;;;;;;;6148331;23;20450;-76
2023/05/26 04:45:57;;;;;;;0.10;0.10;;;;;;;;;;6149239;23;20460;-76
2023/05/26 04:48:42;;;;;;;0.10;0.10;;;;;;;;;;6149572;23;20017;-77
2023/05/26 04:51:28;;;;;;;0.10;0.10;;;;;;;;;;6149995;23;20063;-79
2023/05/26 04:54:14;;;;;;;0.10;0.10;;;;;;;;;;6149223;23;20013;-76
2023/05/26 04:57:00;;;;;;;0.10;0.10;;;;;;;;;;6148937;23;20020;-76
2023/05/26 05:00:05;;;;;;;0.10;0.10;;;;;;;;;;6146497;23;20451;-76
2023/05/26 05:02:52;;;;;;;0.10;0.10;;;;;;;;;;6149924;23;20024;-79
2023/05/26 05:05:52;;;;;;;0.10;0.10;;;;;;;;;;6148490;23;20017;-76
2023/05/26 05:08:38;;;;;;;0.10;0.10;;;;;;;;;;6168484;23;20013;-76
2023/05/26 05:11:24;;;;;;;0.10;0.10;;;;;;;;;;6168960;23;20088;-76
2023/05/26 05:14:10;;;;;;;0.10;0.10;;;;;;;;;;6148534;23;20510;-76
2023/05/26 05:16:55;;;;;;;0.10;0.10;;;;;;;;;;6149001;23;20028;-77
2023/05/26 05:19:43;;;;;;;0.10;0.10;;;;;;;;;;6169219;23;20017;-76
2023/05/26 05:22:29;;;;;;;0.10;0.10;;;;;;;;;;6149898;23;20012;-76
2023/05/26 05:25:14;;;;;;;0.10;0.10;;;;;;;;;;6168172;23;20013;-78
2023/05/26 05:28:00;;;;;;;0.10;0.10;;;;;;;;;;6168288;23;20100;-76
2023/05/26 05:30:46;;;;;;;0.10;0.10;;;;;;;;;;6148447;23;20021;-77
2023/05/26 05:33:32;;;;;;;0.10;0.10;;;;;;;;;;6149718;23;20025;-77
2023/05/26 05:36:18;;;;;;;0.10;0.10;;;;;;;;;;6147472;23;20013;-76
2023/05/26 05:39:04;;;;;;;0.10;0.10;;;;;;;;;;6149781;23;20020;-77
2023/05/26 05:41:50;;;;;;;0.10;0.10;;;;;;;;;;6147006;23;20009;-76
2023/05/26 05:44:37;;;;;;;0.10;0.10;;;;;;;;;;6149475;23;20131;-77
2023/05/26 05:47:22;;;;;;;0.10;0.10;;;;;;;;;;6149540;23;20104;-76
2023/05/26 05:50:16;;;;;;;0.10;0.10;;;;;;;;;;6148582;23;20013;-77
2023/05/26 05:53:02;;;;;;;0.10;0.10;;;;;;;;;;6148847;23;20021;-77
2023/05/26 05:55:47;;;;;;;0.10;0.10;;;;;;;;;;6168960;23;20048;-76
2023/05/26 05:58:33;;;;;;;0.10;0.10;;;;;;;;;;6149730;23;20021;-78
2023/05/26 06:01:19;;;;;;;0.10;0.10;;;;;;;;;;6167663;23;20052;-75
2023/05/26 06:04:05;;;;;;;0.10;0.10;;;;;;;;;;6147972;23;20055;-75
2023/05/26 06:06:51;;;;;;;0.10;0.10;;;;;;;;;;6148115;23;20017;-76
2023/05/26 06:09:39;;;;;;;0.10;0.10;;;;;;;;;;6147125;23;20553;-76
2023/05/26 06:12:25;;;;;;;0.10;0.10;;;;;;;;;;6148119;23;20028;-78
2023/05/26 06:15:12;;;;;;;0.10;0.10;;;;;;;;;;6146104;23;20009;-76
2023/05/26 06:17:58;;;;;;;0.10;0.10;;;;;;;;;;6167275;23;20132;-76
2023/05/26 06:20:43;;;;;;;0.10;0.10;;;;;;;;;;6169981;23;20017;-76
2023/05/26 06:23:29;;;;;;;0.10;0.10;;;;;;;;;;6148718;23;20036;-77
2023/05/26 06:26:15;;;;;;;0.10;0.10;;;;;;;;;;6147516;23;20017;-76
2023/05/26 06:29:01;;;;;;;0.10;0.10;;;;;;;;;;6149586;23;20064;-77
2023/05/26 06:31:47;;;;;;;0.10;0.10;;;;;;;;;;6168977;23;20585;-77
2023/05/26 06:34:36;;;;;;;0.10;0.10;;;;;;;;;;6148902;23;20012;-76
2023/05/26 06:37:22;;;;;;;0.10;0.10;;;;;;;;;;6147629;23;20032;-77
2023/05/26 06:40:09;;;;;;;0.10;0.10;;;;;;;;;;6147653;23;20100;-77
2023/05/26 06:42:58;;;;;;;0.10;0.10;;;;;;;;;;6146967;23;20044;-76
2023/05/26 06:45:44;;;;;;;0.20;0.20;;;;;;;;;;6169441;23;20024;-78
2023/05/26 06:48:31;;;;;;;0.10;0.10;;;;;;;;;;6149474;23;20431;-76
2023/05/26 06:51:33;;;;;;;0.10;0.10;;;;;;;;;;6150248;23;20021;-77
2023/05/26 06:54:20;;;;;;;0.10;0.10;;;;;;;;;;6149394;23;20155;-76
2023/05/26 06:57:08;;;;;;;0.10;0.10;;;;;;;;;;6148201;23;20144;-76
2023/05/26 06:59:55;;;;;;;0.10;0.10;;;;;;;;;;6147736;23;20045;-78
2023/05/26 07:02:41;;;;;;;0.10;0.10;;;;;;;;;;6148207;23;20024;-76
2023/05/26 07:05:46;;;;;;;0.10;0.10;;;;;;;;;;6149609;23;20013;-76
2023/05/26 07:08:32;;;;;;;0.10;0.10;;;;;;;;;;6150243;23;20025;-78
2023/05/26 07:11:36;;;;;;;0.10;0.10;;;;;;;;;;6170890;23;20040;-76
2023/05/26 07:14:27;;;;;;;0.10;0.10;;;;;;;;;;6149863;23;20070;-77
2023/05/26 07:17:13;;;;;;;0.10;0.10;;;;;;;;;;6148518;23;20025;-76
2023/05/26 07:19:59;;;;;;;0.10;0.10;;;;;;;;;;6148858;23;20017;-78
2023/05/26 07:22:45;;;;;;;0.10;0.10;;;;;;;;;;6150734;23;20338;-77
2023/05/26 07:25:39;;;;;;;0.15;0.15;;;;;;;;;;6131895;23;20017;-77
2023/05/26 07:28:25;;;;;;;0.10;0.10;;;;;;;;;;6149887;23;20128;-77
2023/05/26 07:31:11;;;;;;;0.10;0.10;;;;;;;;;;6146982;23;20601;-78
2023/05/26 07:33:59;;;;;;;0.10;0.10;;;;;;;;;;6149819;23;20013;-78
2023/05/26 07:36:47;;;;;;;0.10;0.10;;;;;;;;;;6148042;23;20616;-78
2023/05/26 07:39:33;;;;;;;0.10;0.10;;;;;;;;;;6148785;23;20017;-76
2023/05/26 07:42:18;;;;;;;0.10;0.10;;;;;;;;;;6168634;23;20083;-76
2023/05/26 07:45:04;;;;;;;0.10;0.10;;;;;;;;;;6168232;23;20086;-77
2023/05/26 07:47:50;;;;;;;0.10;0.10;;;;;;;;;;6169887;23;20013;-77
2023/05/26 07:50:36;;;;;;;0.10;0.10;;;;;;;;;;6171833;23;20020;-77
2023/05/26 07:53:21;;;;;;;0.10;0.10;;;;;;;;;;6169303;23;20021;-77
2023/05/26 07:56:07;;;;;;;0.10;0.10;;;;;;;;;;6168879;23;20013;-77
2023/05/26 07:58:53;;;;;;;0.08;0.08;;;;;;;;;;6171038;23;20017;-76
2023/05/26 08:01:38;;;;;;;0.10;0.10;;;;;;;;;;6147620;23;20012;-75
2023/05/26 08:04:27;;;;;;;0.10;0.10;;;;;;;;;;6169376;23;20044;-76
2023/05/26 08:07:13;;;;;;;0.10;0.10;;;;;;;;;;6147644;23;20028;-75
2023/05/26 08:09:58;;;;;;;0.10;0.10;;;;;;;;;;6147158;23;20028;-76
2023/05/26 08:12:44;;;;;;;0.10;0.10;;;;;;;;;;6169243;23;20083;-77
2023/05/26 08:15:30;;;;;;;0.10;0.10;;;;;;;;;;6170357;23;20183;-75
2023/05/26 08:18:15;;;;;;;0.10;0.10;;;;;;;;;;6169864;23;20320;-77
2023/05/26 08:21:01;;;;;;;0.10;0.10;;;;;;;;;;6169083;23;20017;-78
2023/05/26 08:23:49;;;;;;;0.10;0.10;;;;;;;;;;6167208;23;20047;-76
2023/05/26 08:26:35;;;;;;;0.10;0.10;;;;;;;;;;6166548;23;20013;-75
2023/05/26 08:29:22;;;;;;;0.10;0.10;;;;;;;;;;6168790;23;20486;-76
2023/05/26 08:32:08;;;;;;;0.10;0.10;;;;;;;;;;6147596;23;20028;-75
2023/05/26 08:34:54;;;;;;;0.20;0.20;;;;;;;;;;6168950;23;20013;-75
2023/05/26 08:37:39;;;;;;;0.10;0.10;;;;;;;;;;6170393;23;20509;-77
2023/05/26 08:40:27;;;;;;;0.17;0.17;;;;;;;;;;6167412;23;20013;-76
2023/05/26 08:43:13;;;;;;;0.10;0.10;;;;;;;;;;6168185;23;20017;-75
2023/05/26 08:46:01;;;;;;;0.10;0.10;;;;;;;;;;6167900;23;20020;-77
2023/05/26 08:48:48;;;;;;;0.10;0.10;;;;;;;;;;6169705;23;20354;-76
2023/05/26 08:51:36;;;;;;;0.10;0.10;;;;;;;;;;6148034;23;20484;-75
2023/05/26 08:54:21;;;;;;;0.10;0.10;;;;;;;;;;6168658;23;20017;-77
2023/05/26 08:57:08;;;;;;;0.08;0.08;;;;;;;;;;6169655;23;20013;-76
2023/05/26 08:59:54;;;;;;;0.10;0.10;;;;;;;;;;6170051;23;20020;-76
2023/05/26 09:02:40;;;;;;;0.15;0.15;;;;;;;;;;6170462;23;20618;-77
2023/05/26 09:05:25;;;;;;;0.10;0.10;;;;;;;;;;6169061;23;20112;-75
2023/05/26 09:08:12;;;;;;;0.10;0.10;;;;;;;;;;6148148;23;20729;-75
2023/05/26 09:11:17;;;;;;;0.10;0.10;;;;;;;;;;6148057;23;20044;-76
2023/05/26 09:14:03;;;;;;;0.10;0.10;;;;;;;;;;6146844;23;20039;-76
2023/05/26 09:16:48;;;;;;;0.10;0.10;;;;;;;;;;6167818;23;20044;-75
2023/05/26 09:19:34;;;;;;;0.10;0.10;;;;;;;;;;6168715;23;20017;-77
2023/05/26 09:22:22;;;;;;;0.10;0.10;;;;;;;;;;6168776;23;20033;-77
2023/05/26 09:25:08;;;;;;;0.10;0.10;;;;;;;;;;6169481;23;20067;-78
2023/05/26 09:27:58;;;;;;;0.10;0.10;;;;;;;;;;6169015;23;20017;-76
2023/05/26 09:30:45;;;;;;;0.20;0.20;;;;;;;;;;6146756;23;20009;-76
2023/05/26 09:33:30;;;;;;;0.10;0.10;;;;;;;;;;6171066;23;20013;-76
2023/05/26 09:36:16;;;;;;;0.10;0.10;;;;;;;;;;6148478;23;20013;-78
2023/05/26 09:39:03;;;;;;;0.10;0.10;;;;;;;;;;6167868;23;20028;-76
2023/05/26 09:41:49;;;;;;;0.10;0.10;;;;;;;;;;6169998;23;20056;-76
2023/05/26 09:44:35;;;;;;;0.00;0.00;;;;;;;;;;6169308;23;20016;-75
2023/05/26 09:47:21;;;;;;;0.10;0.10;;;;;;;;;;6146678;23;20151;-75
2023/05/26 09:50:07;;;;;;;0.10;0.10;;;;;;;;;;6169548;23;20086;-76
2023/05/26 09:52:52;;;;;;;0.10;0.10;;;;;;;;;;6168771;23;20071;-77
2023/05/26 09:55:40;;;;;;;0.08;0.08;;;;;;;;;;6170299;23;20013;-77
2023/05/26 09:58:27;;;;;;;0.10;0.10;;;;;;;;;;6150581;23;20024;-76
2023/05/26 10:01:13;;;;;;;0.10;0.10;;;;;;;;;;6169661;23;20016;-76
2023/05/26 10:04:00;;;;;;;0.10;0.10;;;;;;;;;;6171533;23;20120;-78
2023/05/26 10:06:48;;;;;;;0.10;0.10;;;;;;;;;;6171929;23;20315;-77
2023/05/26 10:09:35;;;;;;;0.10;0.10;;;;;;;;;;6171271;23;20399;-75
2023/05/26 10:12:25;;;;;;;0.10;0.10;;;;;;;;;;6170348;23;20020;-77
2023/05/26 10:15:11;;;;;;;0.10;0.10;;;;;;;;;;6171299;23;20020;-78
2023/05/26 10:17:58;;;;;;;0.10;0.10;;;;;;;;;;6171966;23;20052;-76
2023/05/26 10:20:47;;;;;;;0.10;0.10;;;;;;;;;;6171278;23;20013;-77
2023/05/26 10:23:39;;;;;;;0.10;0.10;;;;;;;;;;6170853;23;20391;-76
2023/05/26 10:26:29;;;;;;;0.10;0.10;;;;;;;;;;6148726;23;20029;-77
2023/05/26 10:29:18;;;;;;;0.10;0.10;;;;;;;;;;6149260;23;20012;-76
2023/05/26 10:32:03;;;;;;;0.10;0.10;;;;;;;;;;6168780;23;20021;-76
2023/05/26 10:34:51;;;;;;;0.10;0.10;;;;;;;;;;6169513;23;20080;-76
2023/05/26 10:37:36;;;;;;;0.10;0.10;;;;;;;;;;6170715;23;20046;-77
2023/05/26 10:40:40;;;;;;;0.10;0.10;;;;;;;;;;6169572;23;20013;-76
2023/05/26 10:43:27;;;;;;;0.10;0.10;;;;;;;;;;6168012;23;20020;-76
2023/05/26 10:46:13;;;;;;;0.10;0.10;;;;;;;;;;6170492;23;20102;-76
2023/05/26 10:48:59;;;;;;;0.10;0.10;;;;;;;;;;6170234;23;20016;-76
2023/05/26 10:51:48;;;;;;;0.10;0.10;;;;;;;;;;6171654;23;20010;-76
2023/05/26 10:54:34;;;;;;;0.10;0.10;;;;;;;;;;6170230;23;20021;-75
2023/05/26 10:57:33;;;;;;;0.10;0.10;;;;;;;;;;6169829;23;20773;-75
2023/05/26 11:00:22;;;;;;;0.10;0.10;;;;;;;;;;6169352;23;20009;-77
2023/05/26 11:03:44;;;;;;;0.10;0.10;;;;;;;;;;6169845;23;20033;-76
2023/05/26 11:06:54;;;;;;;0.10;0.10;;;;;;;;;;6050220;23;20623;-77
2023/05/26 11:09:53;;;;;;;0.10;0.10;;;;;;;;;;6150276;23;20041;-76
2023/05/26 11:12:50;;;;;;;0.10;0.10;;;;;;;;;;6171595;23;20561;-77
2023/05/26 11:15:36;;;;;;;0.10;0.10;;;;;;;;;;6169743;23;20016;-77
2023/05/26 11:18:24;;;;;;;0.10;0.10;;;;;;;;;;6146472;23;20039;-77
2023/05/26 11:21:11;;;;;;;0.08;0.08;;;;;;;;;;6169382;23;20099;-75
2023/05/26 11:23:58;;;;;;;0.10;0.10;;;;;;;;;;6170352;23;20020;-76
2023/05/26 11:26:43;;;;;;;0.10;0.10;;;;;;;;;;6169920;23;20017;-76
2023/05/26 11:29:30;;;;;;;0.10;0.10;;;;;;;;;;6172323;23;20021;-76
2023/05/26 11:32:15;;;;;;;0.10;0.10;;;;;;;;;;6168438;23;20133;-77
2023/05/26 11:35:01;;;;;;;0.20;0.20;;;;;;;;;;6168867;23;20056;-79
2023/05/26 11:37:47;;;;;;;0.10;0.10;;;;;;;;;;6170000;23;20023;-76
2023/05/26 11:40:32;;;;;;;0.20;0.20;;;;;;;;;;6170020;23;20464;-77
2023/05/26 11:43:22;;;;;;;0.20;0.20;;;;;;;;;;6168632;23;20025;-76
2023/05/26 11:46:08;;;;;;;0.10;0.10;;;;;;;;;;6169902;23;20068;-77
2023/05/26 11:48:54;;;;;;;0.08;0.08;;;;;;;;;;6171009;23;20025;-75
2023/05/26 11:51:52;;;;;;;0.10;0.10;;;;;;;;;;6170590;23;20358;-77
2023/05/26 11:54:38;;;;;;;0.20;0.20;;;;;;;;;;6170310;23;20083;-76
2023/05/26 11:57:25;;;;;;;0.10;0.10;;;;;;;;;;6169130;23;20352;-76
2023/05/26 12:00:18;;;;;;;0.10;0.10;;;;;;;;;;6169624;23;20048;-77
2023/05/26 12:03:03;;;;;;;0.10;0.10;;;;;;;;;;6169597;23;20044;-77
2023/05/26 12:05:49;;;;;;;0.10;0.10;;;;;;;;;;6169842;23;20017;-76
2023/05/26 12:08:55;;;;;;;0.20;0.20;;;;;;;;;;6169149;23;20028;-76
2023/05/26 12:11:42;;;;;;;0.20;0.20;;;;;;;;;;6170539;23;20387;-77
2023/05/26 12:14:28;;;;;;;0.20;0.20;;;;;;;;;;6169265;23;20013;-75
2023/05/26 12:17:14;;;;;;;0.08;0.08;;;;;;;;;;6145018;23;20443;-77
2023/05/26 12:19:59;;;;;;;0.10;0.10;;;;;;;;;;6168500;23;20024;-78
2023/05/26 12:22:52;;;;;;;0.10;0.10;;;;;;;;;;6168492;23;20457;-77
2023/05/26 12:25:37;;;;;;;0.10;0.10;;;;;;;;;;6170118;23;20017;-78
2023/05/26 12:28:23;;;;;;;0.03;0.03;;;;;;;;;;6166311;23;20566;-77
2023/05/26 12:31:09;;;;;;;0.05;0.05;;;;;;;;;;6167217;23;20106;-78
2023/05/26 12:33:55;;;;;;;0.08;0.08;;;;;;;;;;6168135;23;20453;-77
2023/05/26 12:36:41;;;;;;;0.10;0.10;;;;;;;;;;6168229;23;20017;-77
2023/05/26 12:39:28;;;;;;;0.20;0.20;;;;;;;;;;6167447;23;20092;-77
2023/05/26 12:42:13;;;;;;;0.10;0.10;;;;;;;;;;6167307;23;20344;-78
2023/05/26 12:44:59;;;;;;;0.10;0.10;;;;;;;;;;6167886;23;20013;-78
2023/05/26 12:47:45;;;;;;;0.10;0.10;;;;;;;;;;6167762;23;20127;-77
2023/05/26 12:50:31;;;;;;;0.13;0.13;;;;;;;;;;6168247;23;20013;-78
2023/05/26 12:53:16;;;;;;;0.00;0.00;;;;;;;;;;6168532;23;20086;-79
2023/05/26 12:56:03;;;;;;;0.10;0.10;;;;;;;;;;6167343;23;20522;-79
2023/05/26 12:58:49;;;;;;;0.00;0.00;;;;;;;;;;6148200;23;20024;-79
2023/05/26 13:01:35;;;;;;;0.10;0.10;;;;;;;;;;6169263;23;20088;-77
2023/05/26 13:04:20;;;;;;;0.10;0.10;;;;;;;;;;6166483;23;20013;-77
2023/05/26 13:07:08;;;;;;;0.10;0.10;;;;;;;;;;6148560;23;20017;-78
2023/05/26 13:09:53;;;;;;;0.10;0.10;;;;;;;;;;6167967;23;20100;-78
2023/05/26 13:12:41;;;;;;;0.10;0.10;;;;;;;;;;6146074;23;20429;-77
2023/05/26 13:15:26;;;;;;;0.10;0.10;;;;;;;;;;6148857;23;20457;-77
2023/05/26 13:18:12;;;;;;;0.10;0.10;;;;;;;;;;6167905;23;20033;-77
2023/05/26 13:20:58;;;;;;;0.10;0.10;;;;;;;;;;6169263;23;20441;-79
2023/05/26 13:23:44;;;;;;;0.10;0.10;;;;;;;;;;6169295;23;20469;-78
2023/05/26 13:26:30;;;;;;;0.10;0.10;;;;;;;;;;6168415;23;20017;-77
2023/05/26 13:29:15;;;;;;;0.10;0.10;;;;;;;;;;6166957;23;20525;-79
2023/05/26 13:32:01;;;;;;;0.10;0.10;;;;;;;;;;6169889;23;20017;-78
2023/05/26 13:34:47;;;;;;;0.10;0.10;;;;;;;;;;6168509;23;20009;-77
2023/05/26 13:37:33;;;;;;;0.10;0.10;;;;;;;;;;6168148;23;20021;-76
2023/05/26 13:40:19;;;;;;;0.10;0.10;;;;;;;;;;6169194;23;20088;-78
2023/05/26 13:43:05;;;;;;;0.10;0.10;;;;;;;;;;6168291;23;20044;-77
2023/05/26 13:45:51;;;;;;;0.10;0.10;;;;;;;;;;6168840;23;20017;-76
2023/05/26 13:48:37;;;;;;;0.10;0.10;;;;;;;;;;6168632;23;20472;-77
2023/05/26 13:51:22;;;;;;;0.10;0.10;;;;;;;;;;6169812;23;20220;-77
2023/05/26 13:54:08;;;;;;;0.10;0.10;;;;;;;;;;6128616;23;20344;-79
2023/05/26 13:56:54;;;;;;;0.10;0.10;;;;;;;;;;6168809;23;20461;-77
2023/05/26 13:59:39;;;;;;;0.10;0.10;;;;;;;;;;6168720;23;20060;-77
2023/05/26 14:02:25;;;;;;;0.10;0.10;;;;;;;;;;6159353;23;20851;-77
2023/05/26 14:05:14;;;;;;;0.10;0.10;;;;;;;;;;6168452;23;20013;-77
2023/05/26 14:08:02;;;;;;;0.10;0.10;;;;;;;;;;6168460;23;20469;-77
2023/05/26 14:10:48;;;;;;;0.00;0.00;;;;;;;;;;6168912;23;20047;-79
2023/05/26 14:13:33;;;;;;;0.10;0.10;;;;;;;;;;6167432;23;20020;-78
2023/05/26 14:16:19;;;;;;;0.10;0.10;;;;;;;;;;6144716;23;20338;-77
2023/05/26 14:19:06;;;;;;;0.00;0.00;;;;;;;;;;6147146;23;20438;-78
2023/05/26 14:21:52;;;;;;;0.10;0.10;;;;;;;;;;6168753;23;20017;-79
2023/05/26 14:24:40;;;;;;;0.03;0.03;;;;;;;;;;6168499;23;20017;-78
2023/05/26 14:27:26;;;;;;;0.10;0.10;;;;;;;;;;6145938;23;20631;-77
2023/05/26 14:30:12;;;;;;;0.52;0.45;;;;;;;;;;6166883;23;20112;-77
2023/05/26 14:32:59;;;;;;;0.10;0.10;;;;;;;;;;6168177;23;20041;-77
2023/05/26 14:35:45;;;;;;;0.00;0.00;;;;;;;;;;6166223;23;20021;-78
2023/05/26 14:38:30;;;;;;;0.10;0.10;;;;;;;;;;6167520;23;20028;-76
2023/05/26 14:41:16;;;;;;;0.10;0.10;;;;;;;;;;6146699;23;20013;-78
2023/05/26 14:44:02;;;;;;;0.10;0.10;;;;;;;;;;6165114;23;20013;-77
2023/05/26 14:46:47;;;;;;;0.10;0.10;;;;;;;;;;6168231;23;20064;-76
2023/05/26 14:49:33;;;;;;;0.10;0.10;;;;;;;;;;6167858;23;20025;-77
2023/05/26 14:52:19;;;;;;;0.10;0.10;;;;;;;;;;6167805;23;20044;-77
2023/05/26 14:55:07;;;;;;;0.10;0.10;;;;;;;;;;6170153;23;20013;-75
2023/05/26 14:57:53;;;;;;;0.10;0.10;;;;;;;;;;6149475;23;20024;-77
2023/05/26 15:00:39;;;;;;;0.10;0.10;;;;;;;;;;6148839;23;20040;-76
2023/05/26 15:03:25;;;;;;;0.00;0.00;;;;;;;;;;6169486;23;20032;-76
2023/05/26 15:06:15;;;;;;;0.10;0.10;;;;;;;;;;6172034;23;20774;-76
2023/05/26 15:09:00;;;;;;;0.10;0.10;;;;;;;;;;6169173;23;20021;-76
2023/05/26 15:12:04;;;;;;;0.10;0.10;;;;;;;;;;6168837;23;20017;-76
2023/05/26 15:14:50;;;;;;;0.10;0.10;;;;;;;;;;6148647;23;20458;-76
2023/05/26 15:17:36;;;;;;;0.10;0.10;;;;;;;;;;6169083;23;20029;-77
2023/05/26 15:20:25;;;;;;;0.00;0.00;;;;;;;;;;6168262;23;20071;-76
2023/05/26 15:23:10;;;;;;;0.10;0.10;;;;;;;;;;6168600;23;20017;-77
2023/05/26 15:25:56;;;;;;;0.10;0.10;;;;;;;;;;6150374;23;20780;-77
2023/05/26 15:28:42;;;;;;;0.10;0.10;;;;;;;;;;6171446;23;20098;-76
2023/05/26 15:31:27;;;;;;;0.10;0.10;;;;;;;;;;6168779;23;20912;-76
2023/05/26 15:34:14;;;;;;;0.10;0.10;;;;;;;;;;6167887;23;20076;-78
2023/05/26 15:37:00;;;;;;;0.10;0.10;;;;;;;;;;6170010;23;20451;-77
2023/05/26 15:39:46;;;;;;;0.10;0.10;;;;;;;;;;6169406;23;20075;-77
2023/05/26 15:42:31;;;;;;;0.10;0.10;;;;;;;;;;6149887;23;20434;-76
2023/05/26 15:45:17;;;;;;;0.10;0.10;;;;;;;;;;6167721;23;20009;-77
2023/05/26 15:48:03;;;;;;;0.10;0.10;;;;;;;;;;6147886;23;20109;-76
2023/05/26 15:50:49;;;;;;;0.10;0.10;;;;;;;;;;6145751;23;20024;-77
2023/05/26 15:53:35;;;;;;;0.10;0.10;;;;;;;;;;6167887;23;20075;-76
2023/05/26 15:56:21;;;;;;;0.10;0.10;;;;;;;;;;6169715;23;20071;-76
2023/05/26 15:59:09;;;;;;;0.10;0.10;;;;;;;;;;6167668;23;20143;-77
2023/05/26 16:01:54;;;;;;;0.10;0.10;;;;;;;;;;6168482;23;20439;-77
2023/05/26 16:04:40;;;;;;;0.00;0.00;;;;;;;;;;6149829;23;20083;-76
2023/05/26 16:07:26;;;;;;;0.00;0.00;;;;;;;;;;6168902;23;20075;-77
2023/05/26 16:10:11;;;;;;;0.10;0.10;;;;;;;;;;6168621;23;20016;-77
2023/05/26 16:12:57;;;;;;;0.10;0.10;;;;;;;;;;6168747;23;20013;-77
2023/05/26 16:15:43;;;;;;;0.10;0.10;;;;;;;;;;6169490;23;20017;-77
2023/05/26 16:18:29;;;;;;;0.10;0.10;;;;;;;;;;6167860;23;20056;-76
2023/05/26 16:21:15;;;;;;;0.00;0.00;;;;;;;;;;6170247;23;20032;-77
2023/05/26 16:24:02;;;;;;;0.10;0.10;;;;;;;;;;6168866;23;20013;-77
2023/05/26 16:26:47;;;;;;;0.00;0.00;;;;;;;;;;6169732;23;20095;-78
2023/05/26 16:29:33;;;;;;;0.03;0.03;;;;;;;;;;6168570;23;20800;-77
2023/05/26 16:32:19;;;;;;;0.10;0.10;;;;;;;;;;6170318;23;20017;-77
2023/05/26 16:35:05;;;;;;;0.10;0.10;;;;;;;;;;6168196;23;20387;-78
2023/05/26 16:37:50;;;;;;;0.10;0.10;;;;;;;;;;6168857;23;20076;-76
2023/05/26 16:40:36;;;;;;;0.00;0.00;;;;;;;;;;6169429;23;20028;-76
2023/05/26 16:43:25;;;;;;;0.10;0.10;;;;;;;;;;6149133;23;20064;-77